Ferme-Neuve, Canada
Current Conditions -  °F | °C
As of 2:00 PM on Thursday 27 Nov 2014 (Local Time) from CYND Reporting Station
Overcast Overcast  
Wind Chill: 19°   Ceiling: 3000
Heat Index: 27°   Visibility: 15mi
Dew Point: 16°   Wind: 7mph
Humidity: 64%   Direction: 350°N
Pressure: 30.05"   Gusts: NA
Location:  46.7°N, 75.45°W
Report Text: CYND 271900Z 35006KT 15SM OVC030 M03/M09 A3005 RMK SC8 SLP178
Loading
Personal Weather Stations






























Interactive Weather Map New forecast layout! Learn more

10-Day Weather Forecast

Advertisements
Track Severe Weather on mobile